Main page
METAR-TAF:

METAR-TAF

Airports :

Lanvéoc-Poulmic air base

Lanvéoc, France

latitude: 48-17N, longitude: 004-26W, elevation: 87 m

Current weather observation

The report was made 31 minutes ago, at 23:30 UTC
Wind 2 kt from the North
Temperature 6°C
Humidity 87%
Pressure 1014 hPa
Visibility 10 km or more
Few clouds at a height of 2900 ft
Scattered clouds at a height of 3800 ft
Broken clouds at a height of 5800 ft

METAR: LFRL 172330Z AUTO 36002KT 9999 FEW029 SCT038 BKN058 06/04 Q1014

Time: 01:01 (00:01 UTC)


TAF: missing

Weather observations and forecasts of more than 4000 airports (METAR and TAF reports).

The available stations are represented by yellow and red dots on the map.

Hover mouse over dot to see the name of the station.

Then click to see weather observations and forecasts.

To change the map : click on the green buttons with a black cross to zoom in, on the green button with a dash to zoom out, or on the green arrows for adjacent maps.


METAR-TAF: